createdAt,value
2019-01-10T00:00:07.364Z,42.93
2019-01-10T00:02:37.729Z,43.93
2019-01-10T00:05:09.565Z,43.05
2019-01-10T00:07:39.868Z,41.27
2019-01-10T00:10:13.783Z,41.65
2019-01-10T00:12:43.714Z,44.63
2019-01-10T00:15:16.606Z,44.83
2019-01-10T00:17:47.130Z,45.23
2019-01-10T00:20:17.980Z,47.77
2019-01-10T00:22:49.787Z,55.98
2019-01-10T00:25:20.469Z,50.07
2019-01-10T00:27:50.746Z,45.70
2019-01-10T00:30:21.034Z,45.30
2019-01-10T00:32:51.753Z,45.23
2019-01-10T00:35:23.711Z,45.40
2019-01-10T00:37:54.297Z,45.88
2019-01-10T00:40:24.767Z,45.80
2019-01-10T00:42:55.783Z,45.05
2019-01-10T00:45:26.418Z,44.33
2019-01-10T00:47:56.820Z,47.27
2019-01-10T00:50:27.409Z,46.35
2019-01-10T00:52:57.785Z,46.03
2019-01-10T00:55:28.447Z,46.45
2019-01-10T00:57:58.749Z,44.90
2019-01-10T01:00:29.577Z,47.10
2019-01-10T01:02:59.939Z,42.97
2019-01-10T01:05:30.509Z,43.73
2019-01-10T01:08:00.810Z,45.37
2019-01-10T01:10:31.471Z,46.63
2019-01-10T01:13:01.829Z,45.80
2019-01-10T01:15:32.667Z,45.17
2019-01-10T01:18:03.415Z,46.73
2019-01-10T01:20:33.678Z,45.97
2019-01-10T01:23:04.295Z,44.65
2019-01-10T01:25:34.643Z,45.60
2019-01-10T01:28:04.838Z,46.00
2019-01-10T01:30:35.747Z,43.65
2019-01-10T01:33:06.432Z,43.78
2019-01-10T01:35:36.727Z,43.70
2019-01-10T01:38:07.929Z,42.00
2019-01-10T01:40:38.516Z,43.30
2019-01-10T01:43:08.804Z,44.00
2019-01-10T01:45:39.429Z,44.05
2019-01-10T01:48:09.882Z,44.77
2019-01-10T01:50:40.448Z,46.08
2019-01-10T01:53:10.763Z,43.43
2019-01-10T01:55:41.434Z,46.65
2019-01-10T01:58:12.762Z,46.10
2019-01-10T02:00:43.650Z,46.50
2019-01-10T02:03:14.254Z,45.78
2019-01-10T02:05:44.550Z,45.57
2019-01-10T02:08:14.905Z,45.53
2019-01-10T02:10:45.554Z,46.95
2019-01-10T02:13:16.847Z,45.77
2019-01-10T02:15:47.750Z,45.07
2019-01-10T02:18:18.812Z,44.60
2019-01-10T02:20:49.457Z,41.60
2019-01-10T02:23:19.800Z,43.53
2019-01-10T02:25:50.412Z,43.73
2019-01-10T02:28:20.803Z,43.70
2019-01-10T02:30:51.366Z,42.38
2019-01-10T02:33:21.678Z,43.73
2019-01-10T02:35:52.258Z,43.90
2019-01-10T02:38:22.732Z,45.73
2019-01-10T02:40:53.317Z,43.05
2019-01-10T02:43:26.623Z,43.00
2019-01-10T02:45:55.750Z,43.37
2019-01-10T02:48:32.418Z,44.50
2019-01-10T02:51:02.725Z,43.87
2019-01-10T02:53:33.398Z,44.05
2019-01-10T02:56:03.774Z,42.97
2019-01-10T02:58:34.368Z,42.30
2019-01-10T03:01:04.809Z,43.80
2019-01-10T03:03:35.444Z,43.37
2019-01-10T03:06:05.851Z,42.23
2019-01-10T03:08:36.729Z,44.90
2019-01-10T03:11:07.552Z,45.40
2019-01-10T03:13:37.878Z,44.47
2019-01-10T03:16:08.561Z,41.92
2019-01-10T03:18:38.878Z,41.83
2019-01-10T03:21:09.468Z,43.23
2019-01-10T03:23:39.848Z,41.10
2019-01-10T03:26:10.469Z,43.55
2019-01-10T03:28:40.799Z,44.27
2019-01-10T03:31:11.505Z,41.03
2019-01-10T03:33:41.799Z,45.73
2019-01-10T03:36:12.857Z,52.25
2019-01-10T03:38:43.550Z,47.60
2019-01-10T03:41:13.821Z,49.30
2019-01-10T03:43:47.306Z,45.05
2019-01-10T03:46:16.798Z,47.03
2019-01-10T03:48:47.389Z,48.07
2019-01-10T03:51:17.744Z,51.17
2019-01-10T03:53:48.430Z,45.80
2019-01-10T03:56:18.937Z,48.73
2019-01-10T03:58:49.519Z,54.27
2019-01-10T04:01:19.901Z,50.70
2019-01-10T04:03:50.420Z,55.17
2019-01-10T04:06:20.790Z,48.37
2019-01-10T04:08:51.629Z,56.23
2019-01-10T04:11:21.934Z,54.10
2019-01-10T04:13:57.512Z,51.70
2019-01-10T04:16:24.905Z,53.40
2019-01-10T04:18:55.569Z,51.97
2019-01-10T04:21:25.942Z,51.73
2019-01-10T04:23:56.530Z,51.58
2019-01-10T04:26:26.846Z,50.67
2019-01-10T04:28:57.487Z,46.47
2019-01-10T04:31:27.975Z,47.63
2019-01-10T04:33:58.417Z,50.03
2019-01-10T04:36:30.184Z,48.13
2019-01-10T04:39:00.774Z,47.33
2019-01-10T04:41:31.311Z,45.67
2019-01-10T04:44:06.933Z,47.00
2019-01-10T04:46:34.064Z,47.07
2019-01-10T04:49:04.740Z,45.08
2019-01-10T04:51:35.366Z,49.27
2019-01-10T04:54:06.034Z,48.87
2019-01-10T04:56:36.489Z,49.63
2019-01-10T04:59:06.676Z,49.57
2019-01-10T05:01:37.272Z,49.10
2019-01-10T05:04:07.640Z,50.47
2019-01-10T05:06:37.957Z,51.47
2019-01-10T05:09:09.638Z,49.67
2019-01-10T05:11:40.193Z,53.20
2019-01-10T05:14:16.465Z,53.20
2019-01-10T05:16:42.613Z,51.97
2019-01-10T05:19:12.897Z,50.63
2019-01-10T05:21:43.452Z,51.77
2019-01-10T05:24:16.078Z,49.23
2019-01-10T05:26:46.731Z,46.87
2019-01-10T05:29:17.340Z,49.20
2019-01-10T05:31:47.889Z,45.90
2019-01-10T05:34:18.513Z,48.90
2019-01-10T05:36:48.804Z,46.77
2019-01-10T05:39:19.431Z,49.87
2019-01-10T05:41:49.683Z,46.90
2019-01-10T05:44:26.537Z,48.33
2019-01-10T05:46:52.670Z,46.92
2019-01-10T05:49:23.269Z,49.10
2019-01-10T05:51:53.814Z,49.10
2019-01-10T05:54:24.540Z,49.03
2019-01-10T05:56:54.743Z,48.07
2019-01-10T05:59:25.382Z,49.23
2019-01-10T06:01:55.861Z,49.33
2019-01-10T06:04:26.472Z,46.88
2019-01-10T06:06:56.751Z,47.50
2019-01-10T06:09:27.307Z,48.48
2019-01-10T06:11:57.729Z,47.27
2019-01-10T06:14:35.566Z,47.05
2019-01-10T06:17:00.569Z,44.23
2019-01-10T06:19:30.912Z,45.30
2019-01-10T06:22:01.520Z,46.02
2019-01-10T06:24:31.697Z,45.63
2019-01-10T06:27:01.960Z,42.83
2019-01-10T06:29:32.513Z,44.53
2019-01-10T06:32:02.926Z,42.53
2019-01-10T06:34:33.490Z,43.23
2019-01-10T06:37:03.895Z,43.53
2019-01-10T06:39:34.504Z,43.78
2019-01-10T06:42:04.818Z,42.40
2019-01-10T06:44:44.358Z,43.30
2019-01-10T06:47:07.900Z,43.60
2019-01-10T06:49:38.361Z,41.00
2019-01-10T06:52:08.558Z,43.97
2019-01-10T06:54:39.001Z,43.77
2019-01-10T06:57:09.513Z,41.70
2019-01-10T06:59:39.814Z,42.00
2019-01-10T07:02:10.495Z,43.63
2019-01-10T07:04:40.713Z,44.43
2019-01-10T07:07:11.327Z,45.70
2019-01-10T07:09:41.998Z,43.20
2019-01-10T07:12:12.447Z,45.57
2019-01-10T07:14:43.100Z,43.60
2019-01-10T07:17:15.865Z,46.03
2019-01-10T07:19:49.007Z,44.73
2019-01-10T07:22:20.431Z,43.43
2019-01-10T07:24:55.495Z,43.43
2019-01-10T07:27:25.803Z,46.90
2019-01-10T07:29:59.584Z,46.40
2019-01-10T07:32:29.960Z,50.80
2019-01-10T07:35:05.477Z,56.83
2019-01-10T07:37:35.773Z,60.93
2019-01-10T07:40:12.638Z,55.65
2019-01-10T07:42:42.935Z,56.20
2019-01-10T07:45:24.930Z,49.17
2019-01-10T07:47:55.724Z,48.67
2019-01-10T07:50:37.284Z,47.98
2019-01-10T07:53:10.269Z,47.35
2019-01-10T07:55:40.987Z,47.17
2019-01-10T07:58:11.487Z,46.23
2019-01-10T08:00:41.851Z,47.20
2019-01-10T08:03:12.407Z,49.83
2019-01-10T08:05:42.736Z,45.00
2019-01-10T08:08:14.397Z,44.27
2019-01-10T08:10:44.821Z,42.17
2019-01-10T08:13:15.433Z,43.20
2019-01-10T08:15:46.164Z,39.67
2019-01-10T08:18:16.520Z,40.00
2019-01-10T08:20:46.818Z,40.60
2019-01-10T08:23:17.600Z,41.85
2019-01-10T08:25:47.938Z,41.03
2019-01-10T08:28:18.509Z,42.10
2019-01-10T08:30:48.891Z,42.93
2019-01-10T08:33:19.388Z,41.50
2019-01-10T08:35:49.690Z,41.17
2019-01-10T08:38:21.905Z,37.73
2019-01-10T08:40:52.481Z,41.53
2019-01-10T08:43:22.742Z,41.03
2019-01-10T08:45:53.380Z,43.15
2019-01-10T08:48:23.911Z,42.57
2019-01-10T08:50:54.420Z,44.63
2019-01-10T08:53:24.678Z,40.70
2019-01-10T08:55:55.288Z,34.03
2019-01-10T08:58:25.767Z,34.60
2019-01-10T09:00:56.754Z,34.13
2019-01-10T09:03:27.312Z,34.20
2019-01-10T09:05:57.632Z,33.47
2019-01-10T09:08:27.969Z,32.70
2019-01-10T09:10:58.548Z,33.57
2019-01-10T09:13:28.837Z,31.67
2019-01-10T09:15:59.445Z,30.90
2019-01-10T09:18:29.800Z,32.17
2019-01-10T09:21:04.458Z,33.10
2019-01-10T09:23:32.629Z,31.37
2019-01-10T09:26:02.637Z,37.27
2019-01-10T09:28:32.696Z,49.73
2019-01-10T09:31:03.406Z,49.33
2019-01-10T09:33:33.504Z,48.77
2019-01-10T09:36:03.608Z,42.43
2019-01-10T09:38:33.774Z,36.20
2019-01-10T09:41:04.227Z,33.63
2019-01-10T09:43:34.509Z,38.30
2019-01-10T09:46:04.864Z,40.43
2019-01-10T09:48:35.403Z,45.23
2019-01-10T09:51:05.672Z,44.73
2019-01-10T09:53:35.977Z,42.93
2019-01-10T09:56:06.617Z,34.00
2019-01-10T09:58:36.797Z,33.43
2019-01-10T10:01:07.444Z,45.20
2019-01-10T10:03:37.688Z,53.33
2019-01-10T10:06:08.316Z,32.03
2019-01-10T10:08:38.624Z,30.00
2019-01-10T10:11:09.160Z,28.57
2019-01-10T10:13:39.305Z,27.80
2019-01-10T10:16:09.648Z,29.60
2019-01-10T10:18:40.222Z,32.53
2019-01-10T10:21:10.586Z,33.47
2019-01-10T10:23:40.836Z,29.00
2019-01-10T10:26:11.391Z,29.13
2019-01-10T10:28:41.484Z,27.10
2019-01-10T10:31:11.801Z,26.57
2019-01-10T10:33:42.228Z,42.55
2019-01-10T10:36:12.675Z,46.80
2019-01-10T10:38:43.295Z,52.70
2019-01-10T10:41:13.416Z,40.37
2019-01-10T10:43:44.893Z,40.97
2019-01-10T10:46:15.380Z,37.53
2019-01-10T10:48:45.602Z,39.13
2019-01-10T10:51:15.870Z,41.77
2019-01-10T10:53:46.428Z,42.33
2019-01-10T10:56:16.660Z,35.97
2019-01-10T10:58:47.110Z,27.73
2019-01-10T11:01:17.404Z,30.50
2019-01-10T11:03:47.668Z,32.47
2019-01-10T11:06:17.678Z,29.50
2019-01-10T11:08:47.820Z,28.23
2019-01-10T11:11:18.385Z,29.53
2019-01-10T11:13:50.949Z,33.00
2019-01-10T11:16:21.332Z,32.33
2019-01-10T11:18:51.582Z,34.97
2019-01-10T11:21:21.904Z,36.37
2019-01-10T11:23:52.469Z,34.58
2019-01-10T11:26:22.612Z,33.07
2019-01-10T11:28:52.929Z,33.40
2019-01-10T11:31:23.434Z,31.10
2019-01-10T11:33:54.078Z,32.57
2019-01-10T11:36:24.383Z,41.25
2019-01-10T11:38:54.610Z,33.73
2019-01-10T11:41:26.973Z,33.57
2019-01-10T11:43:57.388Z,32.67
2019-01-10T11:46:27.603Z,31.20
2019-01-10T11:48:57.771Z,31.27
2019-01-10T11:51:28.291Z,31.05
2019-01-10T11:53:58.472Z,33.47
2019-01-10T11:56:28.717Z,32.10
2019-01-10T11:58:59.219Z,29.67
2019-01-10T12:01:29.781Z,29.50
2019-01-10T12:04:00.307Z,29.57
2019-01-10T12:06:30.779Z,29.53
2019-01-10T12:09:01.128Z,27.42
2019-01-10T12:11:32.516Z,32.53
2019-01-10T12:14:02.873Z,33.93
2019-01-10T12:16:33.456Z,32.77
2019-01-10T12:19:03.599Z,32.67
2019-01-10T12:21:33.844Z,36.90
2019-01-10T12:24:04.393Z,36.03
2019-01-10T12:26:34.715Z,35.88
2019-01-10T12:29:05.985Z,40.98
2019-01-10T12:31:36.551Z,39.47
2019-01-10T12:34:06.780Z,37.60
2019-01-10T12:36:37.246Z,45.03
2019-01-10T12:39:08.984Z,63.93
2019-01-10T12:41:39.476Z,36.58
2019-01-10T12:44:18.802Z,35.27
2019-01-10T12:46:49.332Z,35.15
2019-01-10T12:49:19.638Z,34.27
2019-01-10T12:51:50.229Z,35.33
2019-01-10T12:54:22.014Z,34.80
2019-01-10T12:56:52.293Z,35.93
2019-01-10T12:59:22.507Z,34.57
2019-01-10T13:01:52.674Z,34.43
2019-01-10T13:04:23.152Z,43.10
2019-01-10T13:06:53.380Z,36.70
2019-01-10T13:09:23.581Z,36.00
2019-01-10T13:11:54.049Z,34.63
2019-01-10T13:14:24.394Z,32.00
2019-01-10T13:16:54.555Z,30.63
2019-01-10T13:19:24.880Z,31.30
2019-01-10T13:21:55.338Z,32.65
2019-01-10T13:24:28.534Z,30.30
2019-01-10T13:26:58.764Z,30.77
2019-01-10T13:29:29.407Z,31.12
2019-01-10T13:32:00.847Z,30.45
2019-01-10T13:34:31.295Z,30.70
2019-01-10T13:37:01.616Z,30.47
2019-01-10T13:39:31.878Z,27.63
2019-01-10T13:42:02.311Z,28.10
2019-01-10T13:44:33.008Z,28.20
2019-01-10T13:47:03.577Z,30.30
2019-01-10T13:49:33.699Z,29.27
2019-01-10T13:52:04.024Z,28.17
2019-01-10T13:54:34.268Z,25.93
2019-01-10T13:57:04.751Z,29.20
2019-01-10T13:59:34.974Z,27.30
2019-01-10T14:02:05.366Z,30.50
2019-01-10T14:04:35.527Z,31.30
2019-01-10T14:07:06.223Z,29.87
2019-01-10T14:09:36.404Z,27.00
2019-01-10T14:12:06.666Z,25.47
2019-01-10T14:14:36.892Z,23.37
2019-01-10T14:17:10.290Z,23.27
2019-01-10T14:19:40.529Z,22.77
2019-01-10T14:22:11.233Z,24.57
2019-01-10T14:24:41.701Z,32.33
2019-01-10T14:27:12.666Z,27.52
2019-01-10T14:29:43.410Z,28.05
2019-01-10T14:32:13.699Z,30.33
2019-01-10T14:34:44.172Z,29.87
2019-01-10T14:37:14.777Z,35.17
2019-01-10T14:39:45.164Z,33.58
2019-01-10T14:42:15.682Z,29.23
2019-01-10T14:44:46.753Z,26.25
2019-01-10T14:47:17.477Z,26.85
2019-01-10T14:49:47.658Z,25.63
2019-01-10T14:52:18.325Z,22.52
2019-01-10T14:54:48.612Z,23.17
2019-01-10T14:57:18.738Z,21.17
2019-01-10T14:59:49.244Z,19.00
2019-01-10T15:02:19.640Z,20.10
2019-01-10T15:04:49.689Z,23.00
2019-01-10T15:07:20.214Z,20.37
2019-01-10T15:09:50.629Z,25.00
2019-01-10T15:12:20.790Z,24.73
2019-01-10T15:14:51.529Z,25.77
2019-01-10T15:17:21.944Z,35.43
2019-01-10T15:19:53.674Z,25.62
2019-01-10T15:22:24.220Z,46.80
2019-01-10T15:24:54.304Z,33.47
2019-01-10T15:27:24.515Z,34.53
2019-01-10T15:29:54.754Z,23.53
2019-01-10T15:32:25.419Z,23.80
2019-01-10T15:34:55.676Z,28.97
2019-01-10T15:37:26.182Z,29.82
2019-01-10T15:39:57.578Z,20.27
2019-01-10T15:42:27.858Z,19.43
2019-01-10T15:44:58.548Z,20.47
2019-01-10T15:47:28.840Z,19.33
2019-01-10T15:50:01.420Z,17.20
2019-01-10T15:52:31.922Z,15.27
2019-01-10T15:55:02.458Z,15.50
2019-01-10T15:57:32.572Z,18.43
2019-01-10T16:00:02.940Z,23.07
2019-01-10T16:02:33.324Z,20.03
2019-01-10T16:05:03.553Z,21.23
2019-01-10T16:07:34.007Z,20.83
2019-01-10T16:10:05.454Z,22.53
2019-01-10T16:12:35.681Z,23.40
2019-01-10T16:15:07.747Z,21.30
2019-01-10T16:17:38.263Z,22.48
2019-01-10T16:20:10.085Z,24.80
2019-01-10T16:22:40.591Z,24.67
2019-01-10T16:25:11.906Z,23.37
2019-01-10T16:27:42.491Z,26.57
2019-01-10T16:30:21.254Z,21.33
2019-01-10T16:32:51.394Z,22.50
2019-01-10T16:35:21.634Z,22.32
2019-01-10T16:37:52.063Z,26.93
2019-01-10T16:40:22.530Z,31.95
2019-01-10T16:42:53.551Z,34.00
2019-01-10T16:45:25.958Z,32.40
2019-01-10T16:47:56.574Z,29.07
2019-01-10T16:50:26.883Z,26.83
2019-01-10T16:52:57.475Z,26.57
2019-01-10T16:55:27.642Z,23.27
2019-01-10T16:57:58.216Z,18.17
2019-01-10T17:00:33.495Z,19.50
2019-01-10T17:03:03.911Z,20.10
2019-01-10T17:05:34.395Z,23.27
2019-01-10T17:08:05.299Z,19.70
2019-01-10T17:10:35.422Z,22.20
2019-01-10T17:13:05.649Z,29.47
2019-01-10T17:15:35.842Z,24.63
2019-01-10T17:18:06.350Z,23.90
2019-01-10T17:20:36.532Z,20.47
2019-01-10T17:23:08.989Z,23.67
2019-01-10T17:25:40.695Z,27.00
2019-01-10T17:28:11.142Z,28.95
2019-01-10T17:30:41.405Z,26.27
2019-01-10T17:33:11.656Z,23.20
2019-01-10T17:35:42.236Z,24.90
2019-01-10T17:38:12.693Z,25.27
2019-01-10T17:40:43.212Z,22.35
2019-01-10T17:43:14.794Z,23.32
2019-01-10T17:45:45.431Z,24.72
2019-01-10T17:48:15.594Z,22.80
2019-01-10T17:50:45.648Z,21.30
2019-01-10T17:53:16.309Z,22.05
2019-01-10T17:55:46.404Z,22.57
2019-01-10T17:58:16.506Z,21.27
2019-01-10T18:00:46.914Z,22.90
2019-01-10T18:03:17.367Z,23.50
2019-01-10T18:05:47.596Z,25.40
2019-01-10T18:08:17.954Z,23.63
2019-01-10T18:10:48.152Z,22.47
2019-01-10T18:13:18.228Z,24.80
2019-01-10T18:15:48.535Z,22.20
2019-01-10T18:18:19.727Z,24.80
2019-01-10T18:20:50.256Z,20.57
2019-01-10T18:23:20.403Z,26.77
2019-01-10T18:25:50.442Z,24.50
2019-01-10T18:28:20.576Z,22.63
2019-01-10T18:30:50.778Z,22.17
2019-01-10T18:33:21.341Z,22.52
2019-01-10T18:35:52.683Z,24.45
2019-01-10T18:38:23.292Z,23.25
2019-01-10T18:40:53.486Z,24.47
2019-01-10T18:43:23.518Z,22.80
2019-01-10T18:45:53.662Z,30.27
2019-01-10T18:48:23.829Z,32.93
2019-01-10T18:50:54.194Z,30.17
2019-01-10T18:53:25.264Z,26.23
2019-01-10T18:55:55.454Z,26.13
2019-01-10T18:58:25.827Z,26.70
2019-01-10T19:00:57.233Z,26.97
2019-01-10T19:03:27.629Z,24.90
2019-01-10T19:05:57.798Z,25.63
2019-01-10T19:08:28.485Z,26.90
2019-01-10T19:10:58.748Z,28.17
2019-01-10T19:13:29.112Z,32.50
2019-01-10T19:15:59.416Z,30.13
2019-01-10T19:18:29.612Z,28.57
2019-01-10T19:21:00.117Z,30.55
2019-01-10T19:23:30.823Z,28.20
2019-01-10T19:26:02.276Z,39.98
2019-01-10T19:28:32.759Z,35.83
2019-01-10T19:31:04.663Z,34.35
2019-01-10T19:33:35.138Z,31.80
2019-01-10T19:36:05.730Z,30.97
2019-01-10T19:38:36.287Z,27.77
2019-01-10T19:41:06.682Z,28.00
2019-01-10T19:43:37.098Z,29.07
2019-01-10T19:46:07.747Z,27.87
2019-01-10T19:48:38.095Z,28.70
2019-01-10T19:51:08.740Z,28.53
2019-01-10T19:53:39.214Z,25.70
2019-01-10T19:56:09.517Z,32.80
2019-01-10T19:58:45.339Z,37.33
2019-01-10T20:01:15.818Z,33.57
2019-01-10T20:03:46.353Z,32.88
2019-01-10T20:06:16.606Z,30.97
2019-01-10T20:08:46.952Z,30.53
2019-01-10T20:11:17.569Z,31.17
2019-01-10T20:13:47.824Z,27.67
2019-01-10T20:16:18.581Z,33.70
2019-01-10T20:18:48.764Z,33.67
2019-01-10T20:21:19.317Z,32.88
2019-01-10T20:23:49.706Z,32.80
2019-01-10T20:26:20.759Z,36.13
2019-01-10T20:28:51.437Z,35.10
2019-01-10T20:31:21.826Z,33.53
2019-01-10T20:33:52.298Z,39.23
2019-01-10T20:36:22.434Z,40.10
2019-01-10T20:38:52.952Z,45.73
2019-01-10T20:41:23.417Z,42.73
2019-01-10T20:43:53.691Z,41.50
2019-01-10T20:46:23.998Z,43.05
2019-01-10T20:48:54.767Z,40.70
2019-01-10T20:51:25.251Z,40.10
2019-01-10T20:53:55.458Z,38.53
2019-01-10T20:56:25.663Z,36.83
2019-01-10T20:58:56.092Z,38.00
2019-01-10T21:01:26.982Z,38.13
2019-01-10T21:03:57.449Z,56.30
2019-01-10T21:06:27.823Z,52.70
2019-01-10T21:08:58.523Z,34.78
2019-01-10T21:11:28.657Z,107.47
2019-01-10T21:13:58.839Z,95.57
2019-01-10T21:16:29.514Z,35.88
2019-01-10T21:18:59.653Z,174.47
2019-01-10T21:21:30.139Z,192.40
2019-01-10T21:24:01.980Z,77.25
2019-01-10T21:26:32.515Z,37.50
2019-01-10T21:29:02.934Z,28.33
2019-01-10T21:31:35.062Z,26.77
2019-01-10T21:34:05.995Z,28.90
2019-01-10T21:36:36.592Z,29.05
2019-01-10T21:39:08.258Z,36.57
2019-01-10T21:41:38.854Z,39.17
2019-01-10T21:44:09.747Z,34.20
2019-01-10T21:46:40.497Z,27.80
2019-01-10T21:49:11.126Z,25.43
2019-01-10T21:51:42.062Z,29.10
2019-01-10T21:54:12.819Z,27.27
2019-01-10T21:56:44.832Z,24.82
2019-01-10T21:59:15.914Z,27.67
2019-01-10T22:01:46.747Z,27.73
2019-01-10T22:04:17.912Z,31.00
2019-01-10T22:06:48.380Z,29.10
2019-01-10T22:09:18.757Z,29.43
2019-01-10T22:11:49.319Z,26.33
2019-01-10T22:14:19.787Z,26.73
2019-01-10T22:16:50.522Z,28.27
2019-01-10T22:19:21.160Z,27.10
2019-01-10T22:21:51.898Z,26.63
2019-01-10T22:24:22.715Z,25.90
2019-01-10T22:26:53.209Z,23.00
2019-01-10T22:29:23.522Z,24.13
2019-01-10T22:31:53.720Z,23.13
2019-01-10T22:34:23.883Z,27.07
2019-01-10T22:36:54.403Z,23.67
2019-01-10T22:39:24.920Z,23.40
2019-01-10T22:41:56.141Z,24.23
2019-01-10T22:44:26.520Z,33.80
2019-01-10T22:46:56.794Z,29.07
2019-01-10T22:49:27.530Z,25.37
2019-01-10T22:51:57.735Z,22.43
2019-01-10T22:54:28.321Z,23.05
2019-01-10T22:56:58.914Z,25.63
2019-01-10T22:59:29.890Z,23.57
2019-01-10T23:02:00.919Z,25.00
2019-01-10T23:04:37.728Z,25.07
2019-01-10T23:07:21.161Z,23.73
2019-01-10T23:09:51.657Z,20.00
2019-01-10T23:12:22.885Z,21.93
2019-01-10T23:14:53.565Z,21.20
2019-01-10T23:17:25.575Z,23.10
2019-01-10T23:19:56.365Z,23.10
2019-01-10T23:22:26.731Z,22.45
2019-01-10T23:24:58.806Z,21.83
2019-01-10T23:27:29.502Z,21.00
2019-01-10T23:29:59.988Z,21.13
2019-01-10T23:32:30.466Z,20.50
2019-01-10T23:35:00.910Z,21.70
2019-01-10T23:37:31.525Z,20.97
2019-01-10T23:40:02.111Z,21.37
2019-01-10T23:42:32.772Z,20.83
2019-01-10T23:45:03.641Z,21.33
2019-01-10T23:47:34.107Z,21.37
2019-01-10T23:50:05.118Z,19.43
2019-01-10T23:52:36.035Z,21.23
2019-01-10T23:55:06.763Z,20.47
2019-01-10T23:57:37.489Z,22.73
